Time;durP1;ratioP1;P1;durP2;ratioP2;P2;SDS_P1;SDS_P2;PMS_P1;PMS_P2;Temp;Humidity;BMP_temperature;BMP_pressure;BME280_temperature;BME280_humidity;BME280_pressure;Samples;Min_cycle;Max_cycle;Signal;HPM_P1;HPM_P2
2023/06/17 00:00:23;;;;;;;;;;;;;;;15.80;90.18;100913.66;4185613;28;20022;-64
2023/06/17 00:02:25;;;;;;;;;;;;;;;15.77;90.23;100905.91;4186448;28;20023;-65
2023/06/17 00:04:27;;;;;;;;;;;;;;;15.75;90.28;100905.25;4185618;28;20048;-63
2023/06/17 00:06:29;;;;;;;;;;;;;;;15.74;90.35;100911.72;4185201;28;20027;-65
2023/06/17 00:08:33;;;;;;;;;;;;;;;15.75;90.42;100909.84;4201145;28;20023;-64
2023/06/17 00:10:35;;;;;;;;;;;;;;;15.73;90.45;100901.88;4184519;28;20015;-64
2023/06/17 00:12:37;;;;;;;;;;;;;;;15.72;90.39;100911.09;4201137;28;20019;-64
2023/06/17 00:14:40;;;;;;;;;;;;;;;15.70;90.69;100902.28;4200949;28;20019;-64
2023/06/17 00:16:43;;;;;;;;;;;;;;;15.73;90.84;100896.44;4186825;28;20333;-64
2023/06/17 00:18:51;;;;;;;;;;;;;;;15.74;90.68;100902.72;4154157;28;19983;-63
2023/06/17 00:20:53;;;;;;;;;;;;;;;15.74;90.85;100900.84;4185941;28;20020;-63
2023/06/17 00:22:55;;;;;;;;;;;;;;;15.79;91.01;100900.25;4185716;28;20023;-64
2023/06/17 00:24:59;;;;;;;;;;;;;;;15.82;90.88;100908.00;4168775;28;20435;-64
2023/06/17 00:27:01;;;;;;;;;;;;;;;15.81;90.38;100909.88;4186481;28;20032;-64
2023/06/17 00:29:03;;;;;;;;;;;;;;;15.78;90.34;100902.16;4186223;28;20011;-64
2023/06/17 00:31:05;;;;;;;;;;;;;;;15.79;90.78;100902.97;4185528;28;20025;-64
2023/06/17 00:33:09;;;;;;;;;;;;;;;15.82;90.23;100897.13;4218500;28;20229;-64
2023/06/17 00:35:11;;;;;;;;;;;;;;;15.81;90.56;100898.97;4171311;28;19932;-64
2023/06/17 00:37:14;;;;;;;;;;;;;;;15.85;90.39;100886.63;4189182;28;19928;-64
2023/06/17 00:39:16;;;;;;;;;;;;;;;15.85;90.03;100891.25;4188833;28;19929;-64
2023/06/17 00:41:19;;;;;;;;;;;;;;;15.83;89.76;100887.88;4188791;28;20011;-64
2023/06/17 00:43:21;;;;;;;;;;;;;;;15.80;89.95;100882.88;4187149;28;20043;-64
2023/06/17 00:45:24;;;;;;;;;;;;;;;15.78;89.43;100882.22;4220804;28;20007;-65
2023/06/17 00:47:26;;;;;;;;;;;;;;;15.76;89.70;100873.41;4189243;28;20019;-64
2023/06/17 00:49:30;;;;;;;;;;;;;;;15.77;89.96;100872.41;4188369;28;20012;-64
2023/06/17 00:51:33;;;;;;;;;;;;;;;15.78;90.02;100880.38;4187905;28;20012;-63
2023/06/17 00:53:34;;;;;;;;;;;;;;;15.82;90.17;100880.78;4188426;28;20048;-64
2023/06/17 00:55:39;;;;;;;;;;;;;;;15.85;90.30;100880.34;4188418;28;20024;-65
2023/06/17 00:57:45;;;;;;;;;;;;;;;15.85;89.81;100885.81;4188715;28;19935;-65
2023/06/17 00:59:47;;;;;;;;;;;;;;;15.83;89.67;100874.25;4219886;28;20015;-65
2023/06/17 01:01:49;;;;;;;;;;;;;;;15.83;89.80;100874.25;4171024;28;20086;-66
2023/06/17 01:03:52;;;;;;;;;;;;;;;15.82;89.49;100867.97;4188436;27;20020;-65
2023/06/17 01:05:56;;;;;;;;;;;;;;;15.80;89.73;100872.81;4221514;28;20032;-63
2023/06/17 01:08:13;;;;;;;;;;;;;;;15.80;89.94;100871.97;4189243;28;20027;-65
2023/06/17 01:10:17;;;;;;;;;;;;;;;15.79;90.09;100879.28;4187571;28;20011;-65
2023/06/17 01:12:19;;;;;;;;;;;;;;;15.79;90.06;100871.13;4188605;28;20011;-65
2023/06/17 01:14:22;;;;;;;;;;;;;;;15.80;90.49;100870.09;4188046;28;20016;-65
2023/06/17 01:16:24;;;;;;;;;;;;;;;15.79;89.98;100871.13;4188664;28;20184;-65
2023/06/17 01:18:27;;;;;;;;;;;;;;;15.76;90.46;100878.84;4185380;28;20023;-64
2023/06/17 01:20:30;;;;;;;;;;;;;;;15.75;90.59;100874.44;4179033;28;20020;-65
2023/06/17 01:22:32;;;;;;;;;;;;;;;15.71;90.69;100874.03;4188337;28;20015;-65
2023/06/17 01:24:36;;;;;;;;;;;;;;;15.68;90.43;100875.25;4187515;28;20473;-66
2023/06/17 01:26:39;;;;;;;;;;;;;;;15.67;90.93;100872.75;4188081;28;20015;-65
2023/06/17 01:28:44;;;;;;;;;;;;;;;15.68;91.05;100886.16;4188152;28;20020;-63
2023/06/17 01:30:47;;;;;;;;;;;;;;;15.66;91.09;100885.53;4188357;28;20326;-66
2023/06/17 01:32:49;;;;;;;;;;;;;;;15.64;90.85;100890.34;4188657;28;20328;-64
2023/06/17 01:34:52;;;;;;;;;;;;;;;15.62;90.72;100884.25;4186766;28;20007;-66
2023/06/17 01:36:54;;;;;;;;;;;;;;;15.59;90.56;100884.69;4187623;28;20016;-65
2023/06/17 01:38:56;;;;;;;;;;;;;;;15.56;90.92;100886.97;4186213;28;19947;-65
2023/06/17 01:41:01;;;;;;;;;;;;;;;15.53;90.91;100881.94;4187740;28;20024;-65
2023/06/17 01:43:03;;;;;;;;;;;;;;;15.50;90.98;100880.47;4187688;28;20389;-66
2023/06/17 01:45:07;;;;;;;;;;;;;;;15.50;91.30;100878.59;4201058;28;21779;-65
2023/06/17 01:47:10;;;;;;;;;;;;;;;15.50;91.25;100878.59;4220954;28;20054;-66
2023/06/17 01:49:12;;;;;;;;;;;;;;;15.54;91.29;100878.19;4187590;28;20027;-65
2023/06/17 01:51:14;;;;;;;;;;;;;;;15.52;91.04;100881.13;4187713;28;20020;-65
2023/06/17 01:53:16;;;;;;;;;;;;;;;15.50;91.22;100878.59;4187165;28;20016;-65
2023/06/17 01:55:19;;;;;;;;;;;;;;;15.50;91.35;100875.03;4186526;28;20023;-65
2023/06/17 01:57:22;;;;;;;;;;;;;;;15.48;91.36;100874.41;4186056;28;20016;-64
2023/06/17 01:59:24;;;;;;;;;;;;;;;15.47;91.31;100876.28;4185213;28;19932;-66
2023/06/17 02:01:26;;;;;;;;;;;;;;;15.48;91.27;100874.41;4187775;28;20023;-65
2023/06/17 02:03:28;;;;;;;;;;;;;;;15.45;91.70;100872.09;4188257;28;20039;-66
2023/06/17 02:05:30;;;;;;;;;;;;;;;15.45;91.42;100866.66;4186973;28;20019;-65
2023/06/17 02:07:32;;;;;;;;;;;;;;;15.42;91.58;100865.19;4219779;28;20023;-66
2023/06/17 02:09:34;;;;;;;;;;;;;;;15.40;91.36;100869.97;4186725;28;20052;-65
2023/06/17 02:11:36;;;;;;;;;;;;;;;15.39;91.84;100860.16;4188012;28;20007;-64
2023/06/17 02:13:40;;;;;;;;;;;;;;;15.41;91.78;100866.22;4186947;28;20462;-65
2023/06/17 02:15:42;;;;;;;;;;;;;;;15.42;92.26;100861.63;4184731;28;21583;-62
2023/06/17 02:17:47;;;;;;;;;;;;;;;15.42;92.20;100859.75;4186604;28;20023;-65
2023/06/17 02:19:50;;;;;;;;;;;;;;;15.42;92.03;100862.47;4185115;28;19925;-65
2023/06/17 02:21:52;;;;;;;;;;;;;;;15.39;91.76;100862.88;4202671;28;20448;-63
2023/06/17 02:23:54;;;;;;;;;;;;;;;15.36;92.00;100871.47;4187374;28;20024;-65
2023/06/17 02:25:56;;;;;;;;;;;;;;;15.35;92.39;100867.06;4201793;28;20498;-65
2023/06/17 02:28:01;;;;;;;;;;;;;;;15.34;92.26;100862.63;4187488;28;20397;-65
2023/06/17 02:30:04;;;;;;;;;;;;;;;15.32;92.62;100859.28;4186287;28;20059;-63
2023/06/17 02:32:07;;;;;;;;;;;;;;;15.29;92.35;100859.72;4187088;28;20040;-64
2023/06/17 02:34:10;;;;;;;;;;;;;;;15.25;92.88;100858.44;4186420;28;20662;-66
2023/06/17 02:36:14;;;;;;;;;;;;;;;15.25;92.98;100859.28;4187257;28;20058;-64
2023/06/17 02:38:17;;;;;;;;;;;;;;;15.30;93.07;100866.84;4187207;28;20439;-64
2023/06/17 02:40:19;;;;;;;;;;;;;;;15.34;92.67;100859.91;4186432;28;20011;-65
2023/06/17 02:42:24;;;;;;;;;;;;;;;15.39;92.55;100865.59;4169121;28;20023;-66
2023/06/17 02:44:26;;;;;;;;;;;;;;;15.42;92.52;100864.34;4219703;27;20520;-64
2023/06/17 02:46:30;;;;;;;;;;;;;;;15.42;92.47;100862.47;4170617;28;19932;-64
2023/06/17 02:48:32;;;;;;;;;;;;;;;15.40;91.84;100861.00;4186405;28;20028;-64
2023/06/17 02:50:34;;;;;;;;;;;;;;;15.38;92.27;100868.53;4186271;28;20028;-64
2023/06/17 02:52:37;;;;;;;;;;;;;;;15.36;92.25;100863.28;4202504;28;20026;-65
2023/06/17 02:54:39;;;;;;;;;;;;;;;15.36;92.07;100862.44;4218591;28;20014;-64
2023/06/17 02:56:47;;;;;;;;;;;;;;;15.35;92.13;100855.34;4186016;28;20027;-61
2023/06/17 02:58:50;;;;;;;;;;;;;;;15.34;92.45;100865.38;4186318;28;20016;-63
2023/06/17 03:00:54;;;;;;;;;;;;;;;15.33;92.40;100855.53;4218819;28;20353;-64
2023/06/17 03:02:57;;;;;;;;;;;;;;;15.35;92.36;100860.78;4163473;28;20514;-64
2023/06/17 03:05:00;;;;;;;;;;;;;;;15.34;91.96;100856.38;4218759;28;20385;-64
2023/06/17 03:07:02;;;;;;;;;;;;;;;15.34;92.11;100853.66;4186307;28;20027;-64
2023/06/17 03:09:05;;;;;;;;;;;;;;;15.34;92.34;100861.81;4185098;28;20020;-63
2023/06/17 03:11:09;;;;;;;;;;;;;;;15.36;92.18;100857.84;4201667;28;20027;-64
2023/06/17 03:13:12;;;;;;;;;;;;;;;15.35;92.33;100858.06;4183430;28;20015;-63
2023/06/17 03:15:19;;;;;;;;;;;;;;;15.33;92.16;100860.97;4185824;28;20016;-63
2023/06/17 03:17:22;;;;;;;;;;;;;;;15.31;92.52;100847.59;4185845;28;20015;-61
2023/06/17 03:19:25;;;;;;;;;;;;;;;15.29;92.22;100849.66;4202046;28;20119;-63
2023/06/17 03:21:29;;;;;;;;;;;;;;;15.27;92.36;100856.38;4183815;28;20421;-64
2023/06/17 03:23:31;;;;;;;;;;;;;;;15.25;92.85;100856.56;4200856;28;20027;-64
2023/06/17 03:25:34;;;;;;;;;;;;;;;15.27;93.04;100853.63;4185251;28;20011;-64
2023/06/17 03:27:36;;;;;;;;;;;;;;;15.28;92.82;100858.88;4186731;28;20023;-62
2023/06/17 03:29:38;;;;;;;;;;;;;;;15.32;93.03;100856.56;4201893;28;20374;-64
2023/06/17 03:31:42;;;;;;;;;;;;;;;15.38;93.04;100854.94;4218473;28;20047;-64
2023/06/17 03:33:45;;;;;;;;;;;;;;;15.37;92.72;100859.50;4201228;28;20035;-64
2023/06/17 03:35:48;;;;;;;;;;;;;;;15.36;92.59;100866.00;4181742;28;20039;-63
2023/06/17 03:37:50;;;;;;;;;;;;;;;15.34;92.66;100865.38;4185446;28;20028;-63
2023/06/17 03:39:53;;;;;;;;;;;;;;;15.33;92.59;100858.25;4185242;28;20032;-63
2023/06/17 03:41:55;;;;;;;;;;;;;;;15.33;92.80;100863.69;4185794;28;19925;-63
2023/06/17 03:43:57;;;;;;;;;;;;;;;15.31;92.75;100861.19;4186225;28;20015;-64
2023/06/17 03:45:59;;;;;;;;;;;;;;;15.30;92.96;100861.41;4184105;28;20027;-64
2023/06/17 03:48:01;;;;;;;;;;;;;;;15.28;92.99;100858.00;4217794;28;20027;-62
2023/06/17 03:50:03;;;;;;;;;;;;;;;15.30;92.97;100851.34;4185999;28;20015;-63
2023/06/17 03:52:07;;;;;;;;;;;;;;;15.30;92.80;100861.41;4180912;28;20830;-64
2023/06/17 03:54:10;;;;;;;;;;;;;;;15.29;92.81;100856.97;4186174;28;20438;-64
2023/06/17 03:56:13;;;;;;;;;;;;;;;15.26;92.94;100869.09;4184940;28;20020;-64
2023/06/17 03:58:16;;;;;;;;;;;;;;;15.25;92.86;100858.44;4196706;28;20018;-64
2023/06/17 04:00:19;;;;;;;;;;;;;;;15.26;93.14;100860.13;4201242;28;20023;-64
2023/06/17 04:02:22;;;;;;;;;;;;;;;15.28;93.26;100858.88;4184682;28;20407;-63
2023/06/17 04:04:24;;;;;;;;;;;;;;;15.32;93.56;100862.84;4167287;28;20015;-63
2023/06/17 04:06:26;;;;;;;;;;;;;;;15.34;93.47;100865.38;4201855;28;20011;-63
2023/06/17 04:08:32;;;;;;;;;;;;;;;15.35;93.11;100872.50;4184753;28;20514;-64
2023/06/17 04:10:34;;;;;;;;;;;;;;;15.32;93.02;100868.28;4184635;28;20023;-63
2023/06/17 04:12:37;;;;;;;;;;;;;;;15.33;92.94;100871.88;4185925;28;20015;-63
2023/06/17 04:14:39;;;;;;;;;;;;;;;15.35;93.05;100872.50;4217382;28;20011;-64
2023/06/17 04:16:42;;;;;;;;;;;;;;;15.39;92.93;100870.19;4182525;28;20020;-64
2023/06/17 04:18:45;;;;;;;;;;;;;;;15.42;92.91;100867.06;4184783;28;20027;-64
2023/06/17 04:20:49;;;;;;;;;;;;;;;15.44;92.53;100871.25;4186678;28;20024;-63
2023/06/17 04:22:51;;;;;;;;;;;;;;;15.44;92.24;100860.38;4201958;28;20399;-64
2023/06/17 04:24:55;;;;;;;;;;;;;;;15.45;92.11;100862.06;4217601;28;20006;-63
2023/06/17 04:26:58;;;;;;;;;;;;;;;15.48;92.38;100867.06;4217436;28;20034;-63
2023/06/17 04:29:02;;;;;;;;;;;;;;;15.43;92.17;100861.41;4179771;28;20023;-63
2023/06/17 04:31:04;;;;;;;;;;;;;;;15.49;92.42;100865.19;4218303;28;20027;-62
2023/06/17 04:33:11;;;;;;;;;;;;;;;15.47;92.08;100870.84;4152052;28;20491;-64
2023/06/17 04:35:13;;;;;;;;;;;;;;;15.45;91.77;100867.50;4199456;28;20517;-64
2023/06/17 04:37:19;;;;;;;;;;;;;;;15.44;92.00;100868.53;4199880;28;20014;-64
2023/06/17 04:39:22;;;;;;;;;;;;;;;15.45;92.19;100864.78;4200827;28;20469;-64
2023/06/17 04:41:26;;;;;;;;;;;;;;;15.46;92.64;100871.06;4201181;28;20644;-64
2023/06/17 04:43:28;;;;;;;;;;;;;;;15.49;92.72;100874.19;4200033;28;19928;-63
2023/06/17 04:45:31;;;;;;;;;;;;;;;15.51;92.42;100863.09;4180806;28;20020;-65
2023/06/17 04:47:36;;;;;;;;;;;;;;;15.52;92.52;100869.38;4184132;28;20016;-65
2023/06/17 04:49:41;;;;;;;;;;;;;;;15.52;92.53;100875.69;4199478;28;19999;-65
2023/06/17 04:51:44;;;;;;;;;;;;;;;15.53;92.64;100879.22;4200968;28;20034;-63
2023/06/17 04:53:47;;;;;;;;;;;;;;;15.53;92.30;100880.06;4217238;28;20026;-63
2023/06/17 04:55:49;;;;;;;;;;;;;;;15.54;92.46;100880.91;4217364;28;20030;-63
2023/06/17 04:57:53;;;;;;;;;;;;;;;15.54;92.35;100886.34;4184059;28;20433;-64
2023/06/17 05:00:10;;;;;;;;;;;;;;;15.54;92.24;100883.63;4184395;28;20024;-63
2023/06/17 05:02:13;;;;;;;;;;;;;;;15.52;91.86;100880.25;4215994;28;20018;-63
2023/06/17 05:04:16;;;;;;;;;;;;;;;15.52;91.83;100880.25;4183338;28;20026;-64
2023/06/17 05:06:19;;;;;;;;;;;;;;;15.51;92.09;100879.44;4168464;28;20043;-62
2023/06/17 05:08:21;;;;;;;;;;;;;;;15.52;92.21;100877.53;4185325;28;20028;-63
2023/06/17 05:10:23;;;;;;;;;;;;;;;15.54;92.13;100880.91;4184802;28;20445;-64
2023/06/17 05:12:25;;;;;;;;;;;;;;;15.54;92.13;100880.91;4183548;28;20019;-63
2023/06/17 05:14:28;;;;;;;;;;;;;;;15.53;92.13;100881.94;4183544;28;20044;-63
2023/06/17 05:16:30;;;;;;;;;;;;;;;15.53;92.42;100881.94;4184623;28;20399;-65
2023/06/17 05:18:33;;;;;;;;;;;;;;;15.53;92.57;100881.94;4217717;28;20014;-63
2023/06/17 05:20:35;;;;;;;;;;;;;;;15.55;92.05;100882.56;4184343;28;20010;-64
2023/06/17 05:22:37;;;;;;;;;;;;;;;15.56;92.44;100885.09;4186503;28;20015;-64
2023/06/17 05:24:39;;;;;;;;;;;;;;;15.59;92.48;100884.69;4187547;28;19924;-64
2023/06/17 05:26:42;;;;;;;;;;;;;;;15.63;92.24;100890.56;4187338;28;20471;-64
2023/06/17 05:28:44;;;;;;;;;;;;;;;15.66;92.34;100888.25;4186420;28;20367;-64
2023/06/17 05:30:48;;;;;;;;;;;;;;;15.70;92.63;100875.06;4186955;28;20023;-64
2023/06/17 05:32:53;;;;;;;;;;;;;;;15.76;92.55;100882.41;4187042;28;20071;-64
2023/06/17 05:34:57;;;;;;;;;;;;;;;15.79;92.50;100882.00;4187187;28;20019;-62
2023/06/17 05:36:59;;;;;;;;;;;;;;;15.82;92.35;100884.31;4181426;28;20031;-64
2023/06/17 05:39:02;;;;;;;;;;;;;;;15.82;92.02;100878.88;4186682;28;20019;-65
2023/06/17 05:41:04;;;;;;;;;;;;;;;15.84;92.11;100873.22;4188387;28;20027;-62
2023/06/17 05:43:07;;;;;;;;;;;;;;;15.85;92.02;100878.47;4187068;28;20542;-64
2023/06/17 05:45:09;;;;;;;;;;;;;;;15.90;92.06;100882.47;4202799;28;19924;-64
2023/06/17 05:47:12;;;;;;;;;;;;;;;15.91;91.95;100879.53;4220539;28;20019;-63
2023/06/17 05:49:16;;;;;;;;;;;;;;;15.92;92.07;100880.34;4169687;28;20024;-63
2023/06/17 05:51:18;;;;;;;;;;;;;;;15.94;92.11;100880.97;4187901;28;20020;-63
2023/06/17 05:53:22;;;;;;;;;;;;;;;15.94;92.46;100884.56;4187697;28;20435;-65
2023/06/17 05:55:24;;;;;;;;;;;;;;;15.96;92.68;100887.06;4186379;28;20019;-65
2023/06/17 05:57:26;;;;;;;;;;;;;;;15.97;92.58;100886.88;4219791;27;20015;-65
2023/06/17 05:59:29;;;;;;;;;;;;;;;15.97;92.72;100884.13;4186761;28;20039;-64
2023/06/17 06:01:33;;;;;;;;;;;;;;;15.99;92.83;100892.09;4203492;28;19959;-65
2023/06/17 06:03:37;;;;;;;;;;;;;;;16.01;92.78;100888.09;4187320;28;20015;-65
2023/06/17 06:05:39;;;;;;;;;;;;;;;15.99;92.56;100890.22;4168817;28;19932;-64
2023/06/17 06:07:43;;;;;;;;;;;;;;;15.97;92.56;100896.91;4170078;28;20398;-63
2023/06/17 06:09:45;;;;;;;;;;;;;;;15.97;92.96;100895.03;4169238;28;20012;-63
2023/06/17 06:11:47;;;;;;;;;;;;;;;15.99;93.19;100898.38;4187995;28;20027;-64
2023/06/17 06:13:49;;;;;;;;;;;;;;;16.02;93.36;100897.97;4184350;28;20496;-62
2023/06/17 06:15:51;;;;;;;;;;;;;;;16.03;93.37;100888.75;4186295;28;20032;-62
2023/06/17 06:17:54;;;;;;;;;;;;;;;16.09;93.53;100888.94;4187096;28;20027;-62
2023/06/17 06:19:57;;;;;;;;;;;;;;;16.11;93.49;100890.44;4186519;28;20019;-62
2023/06/17 06:21:59;;;;;;;;;;;;;;;16.14;93.75;100894.59;4219094;28;20019;-64
2023/06/17 06:24:02;;;;;;;;;;;;;;;16.18;93.74;100899.41;4217938;28;20591;-62
2023/06/17 06:26:09;;;;;;;;;;;;;;;16.23;94.00;100896.06;4218010;28;19928;-64
2023/06/17 06:28:11;;;;;;;;;;;;;;;16.28;93.89;100895.44;4186053;28;19936;-63
2023/06/17 06:30:14;;;;;;;;;;;;;;;16.33;93.73;100903.81;4188427;28;20027;-64
2023/06/17 06:32:20;;;;;;;;;;;;;;;16.38;93.72;100902.13;4187290;28;19932;-64
2023/06/17 06:34:24;;;;;;;;;;;;;;;16.42;93.80;100905.25;4185987;28;20032;-65
2023/06/17 06:36:28;;;;;;;;;;;;;;;16.46;93.29;100906.53;4219415;27;20023;-66
2023/06/17 06:38:30;;;;;;;;;;;;;;;16.51;92.77;100911.34;4185039;28;20019;-65
2023/06/17 06:40:32;;;;;;;;;;;;;;;16.55;92.32;100910.72;4184779;28;20040;-64
2023/06/17 06:42:37;;;;;;;;;;;;;;;16.60;91.73;100899.16;4183714;28;20019;-64
2023/06/17 06:44:55;;;;;;;;;;;;;;;16.61;90.92;100906.28;4199365;28;20030;-63
2023/06/17 06:46:58;;;;;;;;;;;;;;;16.66;90.27;100913.81;4186711;28;19925;-64
2023/06/17 06:49:00;;;;;;;;;;;;;;;16.69;90.12;100908.81;4185287;28;20046;-62
2023/06/17 06:51:03;;;;;;;;;;;;;;;16.71;90.04;100900.41;4218445;28;20560;-62
2023/06/17 06:53:07;;;;;;;;;;;;;;;16.73;89.32;100912.75;4185448;28;20027;-65
2023/06/17 06:55:09;;;;;;;;;;;;;;;16.76;88.88;100904.16;4183848;28;20028;-64
2023/06/17 06:57:13;;;;;;;;;;;;;;;16.80;88.29;100906.44;4201939;28;20011;-65
2023/06/17 06:59:16;;;;;;;;;;;;;;;16.81;87.98;100906.22;4183867;28;20008;-64
2023/06/17 07:01:18;;;;;;;;;;;;;;;16.83;87.33;100906.03;4185553;28;19960;-65
2023/06/17 07:03:20;;;;;;;;;;;;;;;16.84;86.92;100911.25;4184520;28;20018;-64
2023/06/17 07:05:22;;;;;;;;;;;;;;;16.88;86.71;100907.09;4185933;28;20023;-65
2023/06/17 07:07:30;;;;;;;;;;;;;;;16.89;86.33;100911.47;4199991;28;20831;-66
2023/06/17 07:09:33;;;;;;;;;;;;;;;16.93;86.67;100899.09;4185156;28;20023;-66
2023/06/17 07:11:36;;;;;;;;;;;;;;;16.96;86.20;100908.75;4184880;28;20027;-65
2023/06/17 07:13:39;;;;;;;;;;;;;;;16.99;85.95;100908.31;4184023;28;20656;-63
2023/06/17 07:15:41;;;;;;;;;;;;;;;17.03;85.92;100908.72;4215320;28;20027;-64
2023/06/17 07:17:43;;;;;;;;;;;;;;;17.06;85.99;100908.28;4182750;28;20023;-63
2023/06/17 07:19:45;;;;;;;;;;;;;;;17.08;85.12;100903.44;4183391;28;20027;-63
2023/06/17 07:21:49;;;;;;;;;;;;;;;17.09;84.35;100900.50;4183093;28;20011;-63
2023/06/17 07:23:51;;;;;;;;;;;;;;;17.11;84.23;100903.00;4198761;28;20028;-65
2023/06/17 07:25:55;;;;;;;;;;;;;;;17.16;84.10;100907.81;4198609;28;20018;-66
2023/06/17 07:27:59;;;;;;;;;;;;;;;17.16;84.22;100905.91;4183548;28;20396;-64
2023/06/17 07:30:01;;;;;;;;;;;;;;;17.19;83.99;100905.50;4198004;28;20023;-66
2023/06/17 07:32:05;;;;;;;;;;;;;;;17.20;84.25;100901.72;4184471;28;20023;-65
2023/06/17 07:34:07;;;;;;;;;;;;;;;17.23;84.14;100903.19;4215349;28;20014;-65
2023/06/17 07:36:09;;;;;;;;;;;;;;;17.24;84.15;100905.69;4184171;28;20351;-65
2023/06/17 07:38:11;;;;;;;;;;;;;;;17.27;83.89;100904.41;4168892;28;20470;-62
2023/06/17 07:40:14;;;;;;;;;;;;;;;17.29;83.60;100905.03;4217545;27;20019;-66
2023/06/17 07:42:18;;;;;;;;;;;;;;;17.31;83.21;100902.94;4184404;28;20039;-65
2023/06/17 07:44:20;;;;;;;;;;;;;;;17.34;82.95;100909.84;4184287;28;20015;-66
2023/06/17 07:46:22;;;;;;;;;;;;;;;17.36;82.83;100911.28;4184476;28;20019;-65
2023/06/17 07:48:24;;;;;;;;;;;;;;;17.37;82.71;100910.25;4185727;28;20501;-65
2023/06/17 07:50:26;;;;;;;;;;;;;;;17.40;82.90;100914.44;4185363;28;20019;-64
2023/06/17 07:52:29;;;;;;;;;;;;;;;17.41;82.55;100911.50;4185044;28;20019;-65
2023/06/17 07:54:35;;;;;;;;;;;;;;;17.43;82.52;100908.53;4184816;28;20023;-64
2023/06/17 07:56:37;;;;;;;;;;;;;;;17.43;82.21;100909.38;4184236;28;20024;-64
2023/06/17 07:58:41;;;;;;;;;;;;;;;17.46;81.65;100910.81;4185331;28;20015;-63
2023/06/17 08:00:43;;;;;;;;;;;;;;;17.47;81.38;100915.22;4184493;28;20019;-64
2023/06/17 08:02:45;;;;;;;;;;;;;;;17.47;80.92;100913.31;4184177;28;20039;-64
2023/06/17 08:04:47;;;;;;;;;;;;;;;17.49;80.78;100915.84;4185009;28;20064;-65
2023/06/17 08:06:50;;;;;;;;;;;;;;;17.48;81.04;100909.53;4217070;28;20019;-64
2023/06/17 08:08:53;;;;;;;;;;;;;;;17.51;81.08;100911.00;4181551;28;19936;-64
2023/06/17 08:10:55;;;;;;;;;;;;;;;17.52;80.98;100911.84;4185049;28;20036;-65
2023/06/17 08:12:57;;;;;;;;;;;;;;;17.54;80.94;100909.72;4184265;28;20059;-64
2023/06/17 08:15:01;;;;;;;;;;;;;;;17.56;80.88;100908.44;4168019;28;20015;-65
2023/06/17 08:17:03;;;;;;;;;;;;;;;17.58;80.18;100910.97;4185341;28;20023;-60
2023/06/17 08:19:06;;;;;;;;;;;;;;;17.60;80.09;100911.56;4183976;28;20717;-63
2023/06/17 08:21:08;;;;;;;;;;;;;;;17.61;80.05;100914.09;4200381;28;19925;-63
2023/06/17 08:23:10;;;;;;;;;;;;;;;17.62;79.68;100902.13;4183056;28;20020;-63
2023/06/17 08:25:13;;;;;;;;;;;;;;;17.63;79.50;100906.53;4185589;28;19928;-64
2023/06/17 08:27:15;;;;;;;;;;;;;;;17.64;79.30;100910.91;4185848;28;20026;-67
2023/06/17 08:29:18;;;;;;;;;;;;;;;17.67;79.67;100914.28;4183802;28;19929;-61
2023/06/17 08:31:26;;;;;;;;;;;;;;;17.68;79.61;100910.47;4184420;28;20637;-66
2023/06/17 08:33:29;;;;;;;;;;;;;;;17.69;79.09;100923.09;4167225;28;20375;-63
2023/06/17 08:35:31;;;;;;;;;;;;;;;17.70;79.22;100911.13;4216901;28;20517;-65
2023/06/17 08:37:34;;;;;;;;;;;;;;;17.69;78.53;100913.00;4216254;28;20374;-64
2023/06/17 08:39:39;;;;;;;;;;;;;;;17.71;78.44;100918.22;4181986;28;20027;-63
2023/06/17 08:41:42;;;;;;;;;;;;;;;17.72;78.58;100920.75;4183619;28;20012;-66
2023/06/17 08:43:43;;;;;;;;;;;;;;;17.74;77.28;100915.06;4183609;28;20034;-63
2023/06/17 08:45:46;;;;;;;;;;;;;;;17.76;75.92;100916.53;4185458;28;20367;-62
2023/06/17 08:47:50;;;;;;;;;;;;;;;17.78;74.56;100913.56;4185929;28;20023;-63
2023/06/17 08:49:55;;;;;;;;;;;;;;;17.83;74.30;100913.75;4217424;28;19951;-63
2023/06/17 08:51:59;;;;;;;;;;;;;;;17.85;73.82;100914.34;4184912;28;20028;-64
2023/06/17 08:54:02;;;;;;;;;;;;;;;17.88;73.81;100916.66;4184916;28;20363;-63
2023/06/17 08:56:04;;;;;;;;;;;;;;;17.90;73.33;100917.31;4188153;28;20035;-63
2023/06/17 08:58:06;;;;;;;;;;;;;;;17.94;73.28;100923.97;4187014;28;20047;-64
2023/06/17 09:00:10;;;;;;;;;;;;;;;17.95;72.83;100924.84;4187592;28;20016;-63
2023/06/17 09:02:12;;;;;;;;;;;;;;;17.97;72.59;100928.19;4188696;28;20467;-63
2023/06/17 09:04:16;;;;;;;;;;;;;;;18.00;72.23;100930.47;4188275;28;20015;-62
2023/06/17 09:06:21;;;;;;;;;;;;;;;18.01;72.19;100922.06;4188426;28;20026;-64
2023/06/17 09:08:23;;;;;;;;;;;;;;;18.03;71.77;100924.56;4188489;28;20007;-64
2023/06/17 09:10:25;;;;;;;;;;;;;;;18.04;71.80;100925.38;4188284;28;19929;-63
2023/06/17 09:12:27;;;;;;;;;;;;;;;18.05;72.14;100925.16;4187221;28;20012;-63
2023/06/17 09:14:29;;;;;;;;;;;;;;;18.06;72.34;100926.03;4188126;28;20020;-63
2023/06/17 09:16:35;;;;;;;;;;;;;;;18.08;71.72;100929.38;4188083;28;20027;-62
2023/06/17 09:18:40;;;;;;;;;;;;;;;18.09;71.42;100920.13;4189098;28;19976;-63
2023/06/17 09:20:45;;;;;;;;;;;;;;;18.11;71.08;100932.47;4185729;28;19973;-64
2023/06/17 09:22:50;;;;;;;;;;;;;;;18.14;70.80;100928.47;4187022;28;20024;-63
2023/06/17 09:24:56;;;;;;;;;;;;;;;18.15;70.95;100930.13;4187554;28;20012;-64
2023/06/17 09:26:58;;;;;;;;;;;;;;;18.16;70.90;100927.16;4188270;28;20011;-62
2023/06/17 09:29:03;;;;;;;;;;;;;;;18.17;70.83;100928.03;4218921;28;19930;-62
2023/06/17 09:31:06;;;;;;;;;;;;;;;18.19;70.36;100924.00;4188091;28;19994;-62
2023/06/17 09:33:17;;;;;;;;;;;;;;;18.21;70.67;100928.41;4186972;28;20012;-63
2023/06/17 09:35:19;;;;;;;;;;;;;;;18.24;70.56;100926.06;4187861;28;20442;-63
2023/06/17 09:37:25;;;;;;;;;;;;;;;18.27;70.34;100933.00;4188269;28;20020;-60
2023/06/17 09:39:31;;;;;;;;;;;;;;;18.31;70.80;100926.03;4184642;28;19971;-63
2023/06/17 09:41:36;;;;;;;;;;;;;;;18.34;70.25;100925.59;4219921;28;20007;-63
2023/06/17 09:43:39;;;;;;;;;;;;;;;18.39;70.10;100930.38;4187886;28;20015;-61
2023/06/17 09:45:44;;;;;;;;;;;;;;;18.41;69.84;100928.25;4186678;28;20365;-62
2023/06/17 09:47:51;;;;;;;;;;;;;;;18.42;69.94;100932.66;4188697;28;20015;-63
2023/06/17 09:49:53;;;;;;;;;;;;;;;18.43;69.81;100926.13;4187786;28;20025;-61
2023/06/17 09:51:55;;;;;;;;;;;;;;;18.46;70.01;100931.13;4186756;28;19933;-62
2023/06/17 09:53:59;;;;;;;;;;;;;;;18.47;69.71;100925.44;4186445;28;20427;-64
2023/06/17 09:56:01;;;;;;;;;;;;;;;18.49;69.58;100922.47;4171161;28;20061;-62
2023/06/17 09:58:03;;;;;;;;;;;;;;;18.50;69.73;100924.16;4181153;28;20011;-63
2023/06/17 10:00:10;;;;;;;;;;;;;;;18.52;69.60;100919.28;4183434;28;20015;-63
2023/06/17 10:02:12;;;;;;;;;;;;;;;18.53;69.21;100915.50;4218104;28;20544;-64
2023/06/17 10:04:14;;;;;;;;;;;;;;;18.55;69.42;100921.59;4186610;28;20039;-65
2023/06/17 10:06:19;;;;;;;;;;;;;;;18.54;69.14;100907.06;4185931;28;21052;-64
2023/06/17 10:08:21;;;;;;;;;;;;;;;18.56;69.28;100915.06;4185212;28;20003;-62
2023/06/17 10:10:25;;;;;;;;;;;;;;;18.58;69.04;100907.44;4184835;28;20022;-60
2023/06/17 10:12:27;;;;;;;;;;;;;;;18.60;69.07;100910.78;4216064;28;19960;-63
2023/06/17 10:14:30;;;;;;;;;;;;;;;18.61;68.99;100912.47;4187242;28;20047;-63
2023/06/17 10:16:34;;;;;;;;;;;;;;;18.63;69.03;100913.06;4185941;28;20020;-61
2023/06/17 10:18:37;;;;;;;;;;;;;;;18.65;68.93;100916.44;4186738;28;20011;-62
2023/06/17 10:20:39;;;;;;;;;;;;;;;18.66;68.98;100914.53;4186877;28;20015;-63
2023/06/17 10:22:41;;;;;;;;;;;;;;;18.68;68.96;100916.00;4216468;28;20393;-63
2023/06/17 10:24:42;;;;;;;;;;;;;;;18.71;68.84;100911.94;4182773;28;20012;-64
2023/06/17 10:26:46;;;;;;;;;;;;;;;18.75;68.97;100909.59;4183164;28;20561;-63
2023/06/17 10:29:06;;;;;;;;;;;;;;;18.78;68.71;100909.13;4215893;28;20023;-64
2023/06/17 10:31:21;;;;;;;;;;;;;;;18.81;68.56;100900.47;4187467;28;20478;-61